createdAt,value
2019-03-09T00:04:35.587Z,2.17
2019-03-09T00:14:44.925Z,2.30
2019-03-09T00:19:49.386Z,2.07
2019-03-09T00:24:59.889Z,2.00
2019-03-09T00:30:27.428Z,2.10
2019-03-09T00:35:31.761Z,2.13
2019-03-09T00:40:41.145Z,3.17
2019-03-09T00:46:14.135Z,2.60
2019-03-09T00:51:19.415Z,3.13
2019-03-09T00:56:25.653Z,3.10
2019-03-09T01:01:30.045Z,4.47
2019-03-09T01:06:35.053Z,2.97
2019-03-09T01:11:40.392Z,3.60
2019-03-09T01:16:46.298Z,5.00
2019-03-09T01:21:50.816Z,3.93
2019-03-09T01:26:57.789Z,4.27
2019-03-09T01:32:06.842Z,3.00
2019-03-09T01:37:14.553Z,3.60
2019-03-09T01:42:24.606Z,2.53
2019-03-09T01:47:29.560Z,3.87
2019-03-09T01:52:33.865Z,3.33
2019-03-09T01:57:38.939Z,3.50
2019-03-09T02:02:44.474Z,3.60
2019-03-09T02:07:49.241Z,4.57
2019-03-09T02:12:53.447Z,3.47
2019-03-09T02:17:58.547Z,5.67
2019-03-09T02:23:07.324Z,3.90
2019-03-09T02:28:12.161Z,6.63
2019-03-09T02:33:17.861Z,5.20
2019-03-09T02:38:40.106Z,4.50
2019-03-09T02:43:44.620Z,3.73
2019-03-09T02:48:51.203Z,3.20
2019-03-09T02:53:56.117Z,3.47
2019-03-09T02:59:00.506Z,3.30
2019-03-09T03:04:05.466Z,3.27
2019-03-09T03:09:10.641Z,3.90
2019-03-09T03:14:16.838Z,4.50
2019-03-09T03:19:21.321Z,4.83
2019-03-09T03:24:26.034Z,4.13
2019-03-09T03:29:30.405Z,5.20
2019-03-09T03:34:35.329Z,5.43
2019-03-09T03:39:40.336Z,5.40
2019-03-09T03:44:48.671Z,5.20
2019-03-09T03:49:53.630Z,5.73
2019-03-09T03:54:59.911Z,5.23
2019-03-09T04:00:06.437Z,5.07
2019-03-09T04:05:11.534Z,4.67
2019-03-09T04:10:16.455Z,4.43
2019-03-09T04:15:21.856Z,3.80
2019-03-09T04:20:26.685Z,3.87
2019-03-09T04:25:31.555Z,2.80
2019-03-09T04:30:36.523Z,3.03
2019-03-09T04:35:41.498Z,3.20
2019-03-09T04:40:47.008Z,3.00
2019-03-09T04:45:51.990Z,2.67
2019-03-09T04:50:57.136Z,2.63
2019-03-09T04:56:02.089Z,2.40
2019-03-09T05:01:07.035Z,2.10
2019-03-09T05:06:15.129Z,2.47
2019-03-09T05:11:27.546Z,2.53
2019-03-09T05:16:32.412Z,2.40
2019-03-09T05:21:37.256Z,3.23
2019-03-09T05:26:42.332Z,2.63
2019-03-09T05:31:47.835Z,3.23
2019-03-09T05:36:52.710Z,3.20
2019-03-09T05:41:58.764Z,4.73
2019-03-09T05:47:05.886Z,4.03
2019-03-09T05:52:29.647Z,5.20
2019-03-09T05:57:34.666Z,5.83
2019-03-09T06:02:39.685Z,7.17
2019-03-09T06:07:46.017Z,5.50
2019-03-09T06:12:51.104Z,7.93
2019-03-09T06:17:56.042Z,5.77
2019-03-09T06:23:01.081Z,9.23
2019-03-09T06:28:07.476Z,8.03
2019-03-09T06:33:30.184Z,4.30
2019-03-09T06:38:58.293Z,8.40
2019-03-09T06:44:05.171Z,8.43
2019-03-09T06:49:18.289Z,8.07
2019-03-09T06:54:27.203Z,8.97
2019-03-09T06:59:32.338Z,8.93
2019-03-09T07:04:54.241Z,8.97
2019-03-09T07:09:58.927Z,8.53
2019-03-09T07:15:36.584Z,9.13
2019-03-09T07:20:56.001Z,9.20
2019-03-09T07:31:25.998Z,10.70
2019-03-09T07:36:37.149Z,10.70
2019-03-09T07:41:47.995Z,9.47
2019-03-09T07:46:53.859Z,9.40
2019-03-09T07:52:10.896Z,7.97
2019-03-09T07:57:19.002Z,8.70
2019-03-09T08:02:33.855Z,7.10
2019-03-09T08:07:43.106Z,6.97
2019-03-09T08:12:52.389Z,8.00
2019-03-09T08:17:56.753Z,8.73
2019-03-09T08:23:01.863Z,7.13
2019-03-09T08:28:06.327Z,6.73
2019-03-09T08:33:10.876Z,6.47
2019-03-09T08:38:15.788Z,6.17
2019-03-09T08:43:21.448Z,7.00
2019-03-09T08:48:26.888Z,5.53
2019-03-09T08:53:37.318Z,5.60
2019-03-09T08:58:42.482Z,6.00
2019-03-09T09:03:51.353Z,6.30
2019-03-09T09:08:56.418Z,6.30
2019-03-09T09:14:04.350Z,8.03
2019-03-09T09:19:09.426Z,6.20
2019-03-09T09:24:14.236Z,6.87
2019-03-09T09:29:21.900Z,6.43
2019-03-09T09:34:27.371Z,5.97
2019-03-09T09:39:34.299Z,5.87
2019-03-09T09:44:45.164Z,4.47
2019-03-09T09:49:49.601Z,3.40
2019-03-09T09:54:53.920Z,5.10
2019-03-09T09:59:58.809Z,3.97
2019-03-09T10:05:18.664Z,3.80
2019-03-09T10:10:26.653Z,3.83
2019-03-09T10:15:46.389Z,3.47
2019-03-09T10:21:03.859Z,3.20
2019-03-09T10:26:26.807Z,3.30
2019-03-09T10:31:44.262Z,4.00
2019-03-09T10:37:09.690Z,3.87
2019-03-09T10:42:28.553Z,3.73
2019-03-09T10:47:47.806Z,2.60
2019-03-09T10:53:11.409Z,4.00
2019-03-09T10:58:18.007Z,4.10
2019-03-09T11:03:22.831Z,4.63
2019-03-09T11:08:30.499Z,4.03
2019-03-09T11:13:36.218Z,3.80
2019-03-09T11:18:41.438Z,4.80
2019-03-09T11:23:47.482Z,6.43
2019-03-09T11:28:52.389Z,3.93
2019-03-09T11:33:57.185Z,3.43
2019-03-09T11:39:02.238Z,3.97
2019-03-09T11:44:07.338Z,3.20
2019-03-09T11:49:12.199Z,2.73
2019-03-09T11:54:17.972Z,2.93
2019-03-09T11:59:26.483Z,3.53
2019-03-09T12:04:30.781Z,3.70
2019-03-09T12:09:36.000Z,3.03
2019-03-09T12:14:40.818Z,2.20
2019-03-09T12:19:45.917Z,2.40
2019-03-09T12:24:53.920Z,2.30
2019-03-09T12:29:59.105Z,2.20
2019-03-09T12:35:03.721Z,2.10
2019-03-09T12:40:12.010Z,1.73
2019-03-09T12:45:17.911Z,2.03
2019-03-09T12:50:23.007Z,2.60
2019-03-09T12:55:27.853Z,2.27
2019-03-09T13:00:32.906Z,2.80
2019-03-09T13:05:37.735Z,3.30
2019-03-09T13:10:42.802Z,3.87
2019-03-09T13:15:47.693Z,3.37
2019-03-09T13:20:52.709Z,2.90
2019-03-09T13:26:22.983Z,3.93
2019-03-09T13:31:27.843Z,3.90
2019-03-09T13:36:32.501Z,4.20
2019-03-09T13:41:37.324Z,5.10
2019-03-09T13:46:43.226Z,4.50
2019-03-09T13:51:48.046Z,4.77
2019-03-09T13:56:52.650Z,3.83
2019-03-09T14:01:57.638Z,3.57
2019-03-09T14:07:02.182Z,4.07
2019-03-09T14:12:06.814Z,3.60
2019-03-09T14:17:11.483Z,5.20
2019-03-09T14:22:16.130Z,4.97
2019-03-09T14:27:20.834Z,5.10
2019-03-09T14:32:26.886Z,5.07
2019-03-09T14:37:31.973Z,5.77
2019-03-09T14:42:36.674Z,4.63
2019-03-09T14:47:41.299Z,3.97
2019-03-09T14:52:45.998Z,4.67
2019-03-09T14:57:50.667Z,5.33
2019-03-09T15:02:55.473Z,5.20
2019-03-09T15:08:00.119Z,5.03
2019-03-09T15:13:05.111Z,6.07
2019-03-09T15:18:09.694Z,5.70
2019-03-09T15:23:14.363Z,5.90
2019-03-09T15:28:19.082Z,3.67
2019-03-09T15:33:24.838Z,5.23
2019-03-09T15:38:29.462Z,4.67
2019-03-09T15:43:34.371Z,4.20
2019-03-09T15:48:39.104Z,3.33
2019-03-09T15:53:43.691Z,2.80
2019-03-09T15:58:48.579Z,2.87
2019-03-09T16:03:53.506Z,3.07
2019-03-09T16:08:58.606Z,2.70
2019-03-09T16:14:03.330Z,3.03
2019-03-09T16:19:08.038Z,2.33
2019-03-09T16:24:12.730Z,1.20
2019-03-09T16:29:17.466Z,1.00
2019-03-09T16:34:22.442Z,1.57
2019-03-09T16:39:27.062Z,1.60
2019-03-09T16:44:31.807Z,1.93
2019-03-09T16:49:36.343Z,1.80
2019-03-09T16:54:41.069Z,2.40
2019-03-09T16:59:45.654Z,3.00
2019-03-09T17:04:50.279Z,3.00
2019-03-09T17:09:54.879Z,2.80
2019-03-09T17:14:59.521Z,2.43
2019-03-09T17:20:04.975Z,1.87
2019-03-09T17:25:09.728Z,2.40
2019-03-09T17:30:16.006Z,1.90
2019-03-09T17:35:20.635Z,1.90
2019-03-09T17:40:26.486Z,2.00
2019-03-09T17:45:31.134Z,2.20
2019-03-09T17:50:36.026Z,2.23
2019-03-09T17:55:40.668Z,2.30
2019-03-09T18:00:46.419Z,2.07
2019-03-09T18:05:51.386Z,2.77
2019-03-09T18:10:58.793Z,2.57
2019-03-09T18:16:03.660Z,2.07
2019-03-09T18:21:08.353Z,2.87
2019-03-09T18:26:13.035Z,2.13
2019-03-09T18:31:17.854Z,2.33
2019-03-09T18:36:22.769Z,2.63
2019-03-09T18:41:28.099Z,2.20
2019-03-09T18:46:32.731Z,2.20
2019-03-09T18:51:37.794Z,3.70
2019-03-09T18:56:42.503Z,3.00
2019-03-09T19:01:46.983Z,2.93
2019-03-09T19:06:52.267Z,2.90
2019-03-09T19:11:56.826Z,2.73
2019-03-09T19:17:01.671Z,2.80
2019-03-09T19:22:06.381Z,2.60
2019-03-09T19:27:11.491Z,2.90
2019-03-09T19:32:16.937Z,3.03
2019-03-09T19:37:23.677Z,2.63
2019-03-09T19:42:28.979Z,2.60
2019-03-09T19:47:33.764Z,2.80
2019-03-09T19:52:40.092Z,3.00
2019-03-09T19:57:44.922Z,2.23
2019-03-09T20:02:49.997Z,4.70
2019-03-09T20:07:55.212Z,6.07
2019-03-09T20:13:00.247Z,4.13
2019-03-09T20:18:05.274Z,3.63
2019-03-09T20:23:10.356Z,3.90
2019-03-09T20:28:16.536Z,3.60
2019-03-09T20:33:22.878Z,3.27
2019-03-09T20:38:29.325Z,3.60
2019-03-09T20:43:35.635Z,3.40
2019-03-09T20:48:42.118Z,3.47
2019-03-09T20:53:47.121Z,2.97
2019-03-09T20:58:52.154Z,2.70
2019-03-09T21:03:57.195Z,2.43
2019-03-09T21:09:02.328Z,2.20
2019-03-09T21:14:07.282Z,1.63
2019-03-09T21:19:13.040Z,2.90
2019-03-09T21:24:18.011Z,2.60
2019-03-09T21:29:23.351Z,2.37
2019-03-09T21:34:28.163Z,2.53
2019-03-09T21:39:33.767Z,2.83
2019-03-09T21:44:38.990Z,2.30
2019-03-09T21:49:43.921Z,2.83
2019-03-09T21:54:48.651Z,2.77
2019-03-09T21:59:53.232Z,2.30
2019-03-09T22:04:58.407Z,2.57
2019-03-09T22:10:03.373Z,2.30
2019-03-09T22:15:08.931Z,3.20
2019-03-09T22:20:13.863Z,3.10
2019-03-09T22:25:18.838Z,2.83
2019-03-09T22:30:23.880Z,3.10
2019-03-09T22:35:28.583Z,2.33
2019-03-09T22:40:33.263Z,3.00
2019-03-09T22:45:38.303Z,2.93
2019-03-09T22:50:43.218Z,3.57
2019-03-09T22:55:48.040Z,3.80
2019-03-09T23:00:53.191Z,3.23
2019-03-09T23:05:57.723Z,3.40
2019-03-09T23:11:02.483Z,4.20
2019-03-09T23:16:07.178Z,3.10
2019-03-09T23:21:11.735Z,3.37
2019-03-09T23:26:16.717Z,3.77
2019-03-09T23:31:21.474Z,4.00
2019-03-09T23:36:26.160Z,3.23
2019-03-09T23:41:30.923Z,4.13
2019-03-09T23:46:35.562Z,4.67
2019-03-09T23:51:40.231Z,3.97
2019-03-09T23:56:44.862Z,3.77
